Time;durP1;ratioP1;P1;durP2;ratioP2;P2;SDS_P1;SDS_P2;PMS_P1;PMS_P2;Temp;Humidity;BMP_temperature;BMP_pressure;BME280_temperature;BME280_humidity;BME280_pressure;Samples;Min_cycle;Max_cycle;Signal;HPM_P1;HPM_P2
2022/08/03 00:01:44;;;;;;;9.38;2.00;;;;;;;;;;5012855;28;20053;-82
2022/08/03 00:04:10;;;;;;;6.35;1.48;;;;;;;;;;5012933;28;20108;-82
2022/08/03 00:06:36;;;;;;;6.28;1.45;;;;;;;;;;5012603;28;20026;-82
2022/08/03 00:09:03;;;;;;;3.55;1.45;;;;;;;;;;5011849;28;20092;-82
2022/08/03 00:11:29;;;;;;;8.13;1.83;;;;;;;;;;5011827;28;20030;-82
2022/08/03 00:13:55;;;;;;;17.17;1.88;;;;;;;;;;5012702;28;20025;-82
2022/08/03 00:16:21;;;;;;;15.00;2.20;;;;;;;;;;5011929;28;20022;-82
2022/08/03 00:18:47;;;;;;;7.72;1.83;;;;;;;;;;5012958;28;20053;-82
2022/08/03 00:21:13;;;;;;;4.75;1.75;;;;;;;;;;5013300;28;20050;-82
2022/08/03 00:23:39;;;;;;;7.25;1.52;;;;;;;;;;5013280;28;20026;-82
2022/08/03 00:26:05;;;;;;;6.22;2.25;;;;;;;;;;5013323;28;20022;-82
2022/08/03 00:28:31;;;;;;;8.25;2.00;;;;;;;;;;5016251;28;20026;-82
2022/08/03 00:30:57;;;;;;;8.65;2.72;;;;;;;;;;5016925;28;20033;-82
2022/08/03 00:33:23;;;;;;;6.25;1.70;;;;;;;;;;5017008;28;20034;-82
2022/08/03 00:35:49;;;;;;;8.63;2.53;;;;;;;;;;5016717;28;20038;-82
2022/08/03 00:38:15;;;;;;;6.63;1.60;;;;;;;;;;5016530;28;20057;-82
2022/08/03 00:40:41;;;;;;;7.85;2.53;;;;;;;;;;5016693;28;20025;-82
2022/08/03 00:43:08;;;;;;;10.30;2.38;;;;;;;;;;5016510;28;20022;-82
2022/08/03 00:45:35;;;;;;;8.50;1.92;;;;;;;;;;5016880;28;20018;-82
2022/08/03 00:48:02;;;;;;;13.50;2.10;;;;;;;;;;5016517;28;20022;-82
2022/08/03 00:50:30;;;;;;;6.28;1.75;;;;;;;;;;5016549;28;20375;-82
2022/08/03 00:52:57;;;;;;;16.13;2.15;;;;;;;;;;5016162;28;20026;-82
2022/08/03 00:55:23;;;;;;;6.18;1.95;;;;;;;;;;5016159;28;20113;-82
2022/08/03 00:57:50;;;;;;;5.47;2.15;;;;;;;;;;5015724;28;20033;-82
2022/08/03 01:00:19;;;;;;;8.70;2.50;;;;;;;;;;5016278;28;20026;-82
2022/08/03 01:02:45;;;;;;;5.95;2.30;;;;;;;;;;5016759;28;20441;-82
2022/08/03 01:05:11;;;;;;;9.35;2.17;;;;;;;;;;5016461;28;20487;-82
2022/08/03 01:07:56;;;;;;;8.27;2.58;;;;;;;;;;5016194;28;20104;-82
2022/08/03 01:10:22;;;;;;;7.38;2.00;;;;;;;;;;5016133;28;20033;-82
2022/08/03 01:12:53;;;;;;;10.15;3.30;;;;;;;;;;5016270;28;20330;-82
2022/08/03 01:15:35;;;;;;;6.82;3.13;;;;;;;;;;5015254;28;20156;-82
2022/08/03 01:18:05;;;;;;;8.10;2.90;;;;;;;;;;5015883;28;20037;-82
2022/08/03 01:20:33;;;;;;;8.15;2.80;;;;;;;;;;5016050;28;20017;-82
2022/08/03 01:23:05;;;;;;;9.25;2.53;;;;;;;;;;5017714;28;20026;-82
2022/08/03 01:25:40;;;;;;;13.77;2.92;;;;;;;;;;5035665;28;20021;-82
2022/08/03 01:28:06;;;;;;;7.80;2.72;;;;;;;;;;5035662;28;20024;-82
2022/08/03 01:30:34;;;;;;;7.55;2.45;;;;;;;;;;5050780;28;20462;-82
2022/08/03 01:33:12;;;;;;;8.00;2.60;;;;;;;;;;5035558;28;20029;-82
2022/08/03 01:35:42;;;;;;;12.85;2.63;;;;;;;;;;5050830;28;20041;-82
2022/08/03 01:38:32;;;;;;;7.07;2.55;;;;;;;;;;5035223;28;20046;-82
2022/08/03 01:41:02;;;;;;;9.40;3.08;;;;;;;;;;5032662;28;20065;-82
2022/08/03 01:43:29;;;;;;;10.52;2.80;;;;;;;;;;5035370;28;20083;-82
2022/08/03 01:45:56;;;;;;;7.03;2.88;;;;;;;;;;5035435;28;20383;-82
2022/08/03 01:48:23;;;;;;;16.30;3.50;;;;;;;;;;5035236;28;20464;-82
2022/08/03 01:50:49;;;;;;;10.07;2.83;;;;;;;;;;5035384;28;20025;-82
2022/08/03 01:53:16;;;;;;;6.75;3.10;;;;;;;;;;5050368;28;20028;-82
2022/08/03 01:55:43;;;;;;;9.77;3.35;;;;;;;;;;5029322;28;20460;-82
2022/08/03 01:58:10;;;;;;;8.93;3.20;;;;;;;;;;5015264;28;20026;-82
2022/08/03 02:00:38;;;;;;;9.27;3.28;;;;;;;;;;5013827;28;20032;-82
2022/08/03 02:03:05;;;;;;;6.45;2.97;;;;;;;;;;5015404;28;20021;-82
2022/08/03 02:05:31;;;;;;;8.77;2.97;;;;;;;;;;5015133;28;20022;-82
2022/08/03 02:07:58;;;;;;;10.45;3.10;;;;;;;;;;5013709;28;20022;-82
2022/08/03 02:10:24;;;;;;;15.85;3.05;;;;;;;;;;5015644;28;20423;-82
2022/08/03 02:12:51;;;;;;;11.25;3.55;;;;;;;;;;5015381;28;20391;-82
2022/08/03 02:15:18;;;;;;;7.63;2.83;;;;;;;;;;5015068;28;20030;-82
2022/08/03 02:17:45;;;;;;;11.52;2.67;;;;;;;;;;5015039;28;20087;-82
2022/08/03 02:20:12;;;;;;;12.80;3.22;;;;;;;;;;5014749;28;20029;-82
2022/08/03 02:22:39;;;;;;;10.77;3.20;;;;;;;;;;5015055;28;20081;-82
2022/08/03 02:25:07;;;;;;;8.23;3.30;;;;;;;;;;5015369;28;20025;-82
2022/08/03 02:27:34;;;;;;;13.40;2.63;;;;;;;;;;5013421;28;20395;-82
2022/08/03 02:30:07;;;;;;;11.80;3.60;;;;;;;;;;5014925;28;20040;-82
2022/08/03 02:32:35;;;;;;;11.00;3.42;;;;;;;;;;5014547;28;20104;-82
2022/08/03 02:35:03;;;;;;;13.43;3.65;;;;;;;;;;5014912;28;20041;-82
2022/08/03 02:37:32;;;;;;;13.35;3.53;;;;;;;;;;5014544;28;20069;-82
2022/08/03 02:40:00;;;;;;;14.90;4.20;;;;;;;;;;5014510;28;20025;-82
2022/08/03 02:42:28;;;;;;;8.43;2.85;;;;;;;;;;5014404;28;20113;-82
2022/08/03 02:44:56;;;;;;;14.93;3.67;;;;;;;;;;5014374;28;20033;-82
2022/08/03 02:47:22;;;;;;;15.65;3.67;;;;;;;;;;5014648;28;20452;-82
2022/08/03 02:49:49;;;;;;;11.30;3.80;;;;;;;;;;5014540;28;20022;-82
2022/08/03 02:52:17;;;;;;;9.05;3.20;;;;;;;;;;5014552;28;20542;-82
2022/08/03 02:54:44;;;;;;;13.68;4.07;;;;;;;;;;5012900;28;20475;-82
2022/08/03 02:57:11;;;;;;;15.18;3.25;;;;;;;;;;5012900;28;20038;-82
2022/08/03 02:59:37;;;;;;;8.60;3.00;;;;;;;;;;5014155;28;20025;-82
2022/08/03 03:02:04;;;;;;;10.65;3.78;;;;;;;;;;5014452;28;20022;-82
2022/08/03 03:04:30;;;;;;;7.57;3.25;;;;;;;;;;5014017;28;20018;-82
2022/08/03 03:06:57;;;;;;;10.25;3.60;;;;;;;;;;5013895;28;20026;-82
2022/08/03 03:09:23;;;;;;;9.60;3.50;;;;;;;;;;5014554;28;20120;-82
2022/08/03 03:11:50;;;;;;;11.18;3.75;;;;;;;;;;5013949;28;20030;-82
2022/08/03 03:14:16;;;;;;;9.40;3.60;;;;;;;;;;5012548;28;20030;-82
2022/08/03 03:16:43;;;;;;;12.27;4.43;;;;;;;;;;5014306;28;20069;-82
2022/08/03 03:19:11;;;;;;;13.05;4.15;;;;;;;;;;5014121;28;20108;-82
2022/08/03 03:21:37;;;;;;;11.60;4.65;;;;;;;;;;5014262;28;20029;-82
2022/08/03 03:24:04;;;;;;;10.35;4.30;;;;;;;;;;5024220;28;20033;-82
2022/08/03 03:26:30;;;;;;;14.13;4.38;;;;;;;;;;5033990;28;20411;-82
2022/08/03 03:28:57;;;;;;;12.23;4.88;;;;;;;;;;5033387;28;20109;-82
2022/08/03 03:31:23;;;;;;;14.07;4.70;;;;;;;;;;5033308;28;20022;-82
2022/08/03 03:33:49;;;;;;;16.58;4.93;;;;;;;;;;5033374;28;20030;-82
2022/08/03 03:36:17;;;;;;;11.13;4.47;;;;;;;;;;5033037;28;20542;-82
2022/08/03 03:38:43;;;;;;;16.50;4.45;;;;;;;;;;5032532;28;20488;-81
2022/08/03 03:41:09;;;;;;;14.75;4.88;;;;;;;;;;5048200;28;20017;-81
2022/08/03 03:43:35;;;;;;;16.27;4.93;;;;;;;;;;5033106;28;20032;-81
2022/08/03 03:46:02;;;;;;;9.77;4.57;;;;;;;;;;5033370;28;20507;-81
2022/08/03 03:48:28;;;;;;;14.13;4.32;;;;;;;;;;5033585;28;20348;-81
2022/08/03 03:50:56;;;;;;;12.13;4.30;;;;;;;;;;5033233;28;20518;-81
2022/08/03 03:53:22;;;;;;;13.13;4.13;;;;;;;;;;5033070;28;20021;-82
2022/08/03 03:55:48;;;;;;;19.23;4.57;;;;;;;;;;5026732;28;20088;-81
2022/08/03 03:58:14;;;;;;;13.77;4.65;;;;;;;;;;5013586;28;20025;-81
2022/08/03 04:00:41;;;;;;;11.27;4.22;;;;;;;;;;5013167;28;20416;-82
2022/08/03 04:03:07;;;;;;;13.82;4.85;;;;;;;;;;5012882;28;20102;-81
2022/08/03 04:11:08;;;;;;;19.08;4.25;;;;;;;;;;5013445;28;20045;-81
2022/08/03 04:13:39;;;;;;;13.38;4.57;;;;;;;;;;5012262;28;20037;-81
2022/08/03 04:16:07;;;;;;;14.27;4.27;;;;;;;;;;5013305;28;20465;-81
2022/08/03 04:18:34;;;;;;;16.98;5.22;;;;;;;;;;5012992;28;20041;-81
2022/08/03 04:21:05;;;;;;;14.98;4.32;;;;;;;;;;5013157;28;20465;-82
2022/08/03 04:23:33;;;;;;;12.77;4.83;;;;;;;;;;5012968;28;20025;-82
2022/08/03 04:26:00;;;;;;;19.75;4.70;;;;;;;;;;5013463;28;20376;-81
2022/08/03 04:28:27;;;;;;;12.98;4.47;;;;;;;;;;5013245;28;20045;-81
2022/08/03 04:30:53;;;;;;;13.00;5.07;;;;;;;;;;5012844;28;20022;-81
2022/08/03 04:33:19;;;;;;;15.15;5.05;;;;;;;;;;5013179;28;20117;-81
2022/08/03 04:35:47;;;;;;;13.30;4.72;;;;;;;;;;5013286;28;20033;-82
2022/08/03 04:38:15;;;;;;;9.57;4.35;;;;;;;;;;5023060;28;20042;-82
2022/08/03 04:40:42;;;;;;;15.23;5.00;;;;;;;;;;5032626;28;20505;-81
2022/08/03 04:43:09;;;;;;;13.40;5.25;;;;;;;;;;5032736;28;20057;-82
2022/08/03 04:45:35;;;;;;;15.75;4.93;;;;;;;;;;5032625;28;20108;-82
2022/08/03 04:48:02;;;;;;;13.48;4.28;;;;;;;;;;5032790;28;20028;-81
2022/08/03 04:50:28;;;;;;;14.57;5.10;;;;;;;;;;5032937;28;20022;-81
2022/08/03 04:52:55;;;;;;;17.33;5.03;;;;;;;;;;5032444;28;20026;-81
2022/08/03 04:55:27;;;;;;;18.00;5.15;;;;;;;;;;5032635;28;20571;-81
2022/08/03 04:57:53;;;;;;;11.60;4.43;;;;;;;;;;5032688;28;20021;-81
2022/08/03 05:00:19;;;;;;;10.70;4.80;;;;;;;;;;5032296;28;20040;-81
2022/08/03 05:02:45;;;;;;;11.00;4.60;;;;;;;;;;5031536;28;20033;-82
2022/08/03 05:05:11;;;;;;;10.00;5.10;;;;;;;;;;5031093;28;20022;-82
2022/08/03 05:07:37;;;;;;;13.63;4.50;;;;;;;;;;5030897;28;20022;-81
2022/08/03 05:10:07;;;;;;;14.40;5.57;;;;;;;;;;5032592;28;20032;-82
2022/08/03 05:12:33;;;;;;;21.67;5.60;;;;;;;;;;5032254;28;20125;-82
2022/08/03 05:15:00;;;;;;;13.38;4.90;;;;;;;;;;5034625;28;20353;-82
2022/08/03 05:17:27;;;;;;;10.57;4.65;;;;;;;;;;5035880;28;20071;-82
2022/08/03 05:19:53;;;;;;;12.85;4.80;;;;;;;;;;5035694;28;20021;-82
2022/08/03 05:22:19;;;;;;;11.88;5.35;;;;;;;;;;5036362;28;20120;-82
2022/08/03 05:24:45;;;;;;;17.70;5.25;;;;;;;;;;5019906;28;20029;-81
2022/08/03 05:27:16;;;;;;;21.40;5.88;;;;;;;;;;5016592;28;20437;-82
2022/08/03 05:29:42;;;;;;;18.92;5.53;;;;;;;;;;5016062;28;20026;-82
2022/08/03 05:32:08;;;;;;;16.30;5.43;;;;;;;;;;5015645;28;20034;-82
2022/08/03 05:34:34;;;;;;;16.13;4.72;;;;;;;;;;5016152;28;20088;-82
2022/08/03 05:37:00;;;;;;;13.10;5.13;;;;;;;;;;5015615;28;20054;-81
2022/08/03 05:39:26;;;;;;;17.88;5.30;;;;;;;;;;5015898;28;20105;-82
2022/08/03 05:41:52;;;;;;;13.45;4.90;;;;;;;;;;5015693;28;20543;-82
2022/08/03 05:44:18;;;;;;;12.43;5.32;;;;;;;;;;5015446;28;20080;-82
2022/08/03 05:46:44;;;;;;;15.32;5.55;;;;;;;;;;5020381;28;20022;-82
2022/08/03 05:49:10;;;;;;;14.55;5.80;;;;;;;;;;5033883;28;20025;-82
2022/08/03 05:51:36;;;;;;;18.90;5.13;;;;;;;;;;5035112;28;20059;-82
2022/08/03 05:54:03;;;;;;;15.57;5.43;;;;;;;;;;5035010;28;20057;-82
2022/08/03 05:56:29;;;;;;;9.48;4.53;;;;;;;;;;5023268;28;20100;-83
2022/08/03 05:58:55;;;;;;;14.38;4.40;;;;;;;;;;5033915;28;20037;-82
2022/08/03 06:01:21;;;;;;;9.63;4.72;;;;;;;;;;5035083;28;20013;-82
2022/08/03 06:03:48;;;;;;;16.38;4.22;;;;;;;;;;5035201;28;20072;-82
2022/08/03 06:06:14;;;;;;;15.07;4.60;;;;;;;;;;5035170;28;20028;-82
2022/08/03 06:08:40;;;;;;;19.23;4.63;;;;;;;;;;5034836;28;20051;-82
2022/08/03 06:11:07;;;;;;;19.10;4.57;;;;;;;;;;5035274;28;20075;-82
2022/08/03 06:13:33;;;;;;;22.08;4.13;;;;;;;;;;5034654;28;20099;-82
2022/08/03 06:15:59;;;;;;;14.13;4.05;;;;;;;;;;5034709;28;20028;-82
2022/08/03 06:18:25;;;;;;;15.90;4.00;;;;;;;;;;5034366;28;20102;-82
2022/08/03 06:20:52;;;;;;;13.60;3.78;;;;;;;;;;5032537;28;20025;-82
2022/08/03 06:23:18;;;;;;;17.40;4.25;;;;;;;;;;5034270;28;20095;-82
2022/08/03 06:25:44;;;;;;;21.20;3.25;;;;;;;;;;5034537;28;20022;-84
2022/08/03 06:28:11;;;;;;;17.83;3.58;;;;;;;;;;5034511;28;20025;-83
2022/08/03 06:30:37;;;;;;;16.10;3.72;;;;;;;;;;5034750;28;20031;-82
2022/08/03 06:33:03;;;;;;;21.63;4.10;;;;;;;;;;5032761;28;20030;-82
2022/08/03 06:35:29;;;;;;;20.13;4.32;;;;;;;;;;5032612;28;20445;-82
2022/08/03 06:37:55;;;;;;;17.10;3.70;;;;;;;;;;5034191;28;20496;-82
2022/08/03 06:40:27;;;;;;;18.95;3.67;;;;;;;;;;5034117;28;20021;-82
2022/08/03 06:42:54;;;;;;;10.10;2.83;;;;;;;;;;5033933;28;20026;-82
2022/08/03 06:45:20;;;;;;;21.80;3.20;;;;;;;;;;5033831;28;20113;-82
2022/08/03 06:47:46;;;;;;;19.98;2.83;;;;;;;;;;5034077;28;20449;-82
2022/08/03 06:50:12;;;;;;;12.48;3.30;;;;;;;;;;5033954;28;20029;-82
2022/08/03 06:52:38;;;;;;;19.85;3.20;;;;;;;;;;5033807;28;20073;-82
2022/08/03 06:55:05;;;;;;;15.15;3.75;;;;;;;;;;5033921;28;20095;-82
2022/08/03 06:57:31;;;;;;;13.95;3.15;;;;;;;;;;5032330;28;20056;-83
2022/08/03 07:00:00;;;;;;;17.88;3.22;;;;;;;;;;5033778;28;20100;-82
2022/08/03 07:02:27;;;;;;;10.95;3.05;;;;;;;;;;5032046;28;20044;-82
2022/08/03 07:04:53;;;;;;;16.15;3.70;;;;;;;;;;5033513;28;20036;-82
2022/08/03 07:07:19;;;;;;;21.02;2.88;;;;;;;;;;5034315;28;20021;-82
2022/08/03 07:09:46;;;;;;;22.85;3.83;;;;;;;;;;5033738;28;20029;-82
2022/08/03 07:12:12;;;;;;;25.50;4.13;;;;;;;;;;5032274;28;20032;-82
2022/08/03 07:14:38;;;;;;;14.20;2.75;;;;;;;;;;5033474;28;20100;-82
2022/08/03 07:17:04;;;;;;;12.07;3.20;;;;;;;;;;5033657;28;20105;-82
2022/08/03 07:19:30;;;;;;;14.57;3.75;;;;;;;;;;5033382;28;20487;-82
2022/08/03 07:21:57;;;;;;;14.75;3.22;;;;;;;;;;5033684;28;20410;-82
2022/08/03 07:24:23;;;;;;;18.50;3.33;;;;;;;;;;5020342;28;20127;-82
2022/08/03 07:26:49;;;;;;;14.15;2.75;;;;;;;;;;5013060;28;20030;-82
2022/08/03 07:29:16;;;;;;;23.20;2.70;;;;;;;;;;5014017;28;20457;-82
2022/08/03 07:31:42;;;;;;;12.65;2.50;;;;;;;;;;5012246;28;20033;-82
2022/08/03 07:34:08;;;;;;;16.35;2.67;;;;;;;;;;5013953;28;20119;-81
2022/08/03 07:36:34;;;;;;;16.45;2.63;;;;;;;;;;5012950;28;20030;-82
2022/08/03 07:39:00;;;;;;;16.75;2.90;;;;;;;;;;5013230;28;20060;-82
2022/08/03 07:41:26;;;;;;;14.57;3.33;;;;;;;;;;5032456;28;20044;-81
2022/08/03 07:43:52;;;;;;;9.32;2.45;;;;;;;;;;5033024;28;20026;-80
2022/08/03 07:46:18;;;;;;;19.25;4.40;;;;;;;;;;5032021;28;20021;-80
2022/08/03 07:48:44;;;;;;;19.25;3.45;;;;;;;;;;5033814;28;20163;-80
2022/08/03 07:51:10;;;;;;;15.40;2.97;;;;;;;;;;5033617;28;20064;-80
2022/08/03 07:53:36;;;;;;;16.65;3.80;;;;;;;;;;5032905;28;20100;-82
2022/08/03 07:56:02;;;;;;;9.82;2.83;;;;;;;;;;5032855;28;20030;-81
2022/08/03 07:58:28;;;;;;;21.27;3.08;;;;;;;;;;5032837;28;20036;-80
2022/08/03 08:00:54;;;;;;;10.93;3.00;;;;;;;;;;5032727;28;20029;-83
2022/08/03 08:03:23;;;;;;;18.70;3.22;;;;;;;;;;5032646;28;20022;-82
2022/08/03 08:05:49;;;;;;;16.38;2.88;;;;;;;;;;5032880;28;20017;-82
2022/08/03 08:08:15;;;;;;;21.35;3.13;;;;;;;;;;5032917;28;20029;-82
2022/08/03 08:10:41;;;;;;;15.48;2.83;;;;;;;;;;5032940;28;20099;-82
2022/08/03 08:13:07;;;;;;;19.27;3.60;;;;;;;;;;5032886;28;20383;-82
2022/08/03 08:15:33;;;;;;;14.02;2.92;;;;;;;;;;5032881;28;20030;-82
2022/08/03 08:18:01;;;;;;;19.67;2.95;;;;;;;;;;5032937;28;20033;-83
2022/08/03 08:20:29;;;;;;;16.02;3.10;;;;;;;;;;5031210;28;20049;-83
2022/08/03 08:23:02;;;;;;;19.67;3.10;;;;;;;;;;5031404;28;20053;-80
2022/08/03 08:25:29;;;;;;;23.90;4.68;;;;;;;;;;5032180;28;20029;-79
2022/08/03 08:27:56;;;;;;;14.38;2.58;;;;;;;;;;5031762;28;20435;-79
2022/08/03 08:30:22;;;;;;;16.70;3.15;;;;;;;;;;5031813;28;20033;-77
2022/08/03 08:32:49;;;;;;;19.67;3.15;;;;;;;;;;5031543;28;20057;-77
2022/08/03 08:35:16;;;;;;;19.60;2.83;;;;;;;;;;5031650;28;20506;-77
2022/08/03 08:37:42;;;;;;;17.85;2.72;;;;;;;;;;5025637;28;20048;-77
2022/08/03 08:40:09;;;;;;;15.98;2.92;;;;;;;;;;5011943;28;20026;-77
2022/08/03 08:42:38;;;;;;;12.70;2.58;;;;;;;;;;5011729;28;20022;-77
2022/08/03 08:45:05;;;;;;;14.93;2.58;;;;;;;;;;5011900;28;20022;-79
2022/08/03 08:47:33;;;;;;;16.08;2.65;;;;;;;;;;5012173;28;20021;-79
2022/08/03 08:50:00;;;;;;;15.40;2.92;;;;;;;;;;5015651;28;20040;-79
2022/08/03 08:52:27;;;;;;;20.02;3.30;;;;;;;;;;5029686;28;20036;-79
2022/08/03 08:55:02;;;;;;;16.73;2.72;;;;;;;;;;5035114;28;20446;-78
2022/08/03 08:57:30;;;;;;;17.77;3.50;;;;;;;;;;5034984;28;20025;-79
2022/08/03 08:59:56;;;;;;;18.48;3.03;;;;;;;;;;5034894;28;20108;-78
2022/08/03 09:02:28;;;;;;;20.98;3.00;;;;;;;;;;5034810;28;20499;-77
2022/08/03 09:04:55;;;;;;;27.02;3.17;;;;;;;;;;5035257;28;20083;-78
2022/08/03 09:07:21;;;;;;;16.98;2.80;;;;;;;;;;5035103;28;20462;-78
2022/08/03 09:09:47;;;;;;;20.30;2.75;;;;;;;;;;5034896;28;20495;-78
2022/08/03 09:12:13;;;;;;;23.63;3.22;;;;;;;;;;5034960;28;20033;-79
2022/08/03 09:14:40;;;;;;;17.77;2.95;;;;;;;;;;5035011;28;20059;-76
2022/08/03 09:17:07;;;;;;;19.67;3.38;;;;;;;;;;5034654;28;20555;-76
2022/08/03 09:19:34;;;;;;;12.57;2.72;;;;;;;;;;5034817;28;20411;-77
2022/08/03 09:22:18;;;;;;;14.73;2.50;;;;;;;;;;5035218;28;20543;-78
2022/08/03 09:24:58;;;;;;;13.52;2.25;;;;;;;;;;5035656;28;20040;-78
2022/08/03 09:27:24;;;;;;;23.80;3.53;;;;;;;;;;5050935;28;20026;-78
2022/08/03 09:29:51;;;;;;;26.50;2.72;;;;;;;;;;5035764;28;20072;-76
2022/08/03 09:32:21;;;;;;;20.33;3.22;;;;;;;;;;5034753;28;20025;-79
2022/08/03 09:34:51;;;;;;;16.23;3.35;;;;;;;;;;5034353;28;20033;-79
2022/08/03 09:37:19;;;;;;;21.50;3.33;;;;;;;;;;5034813;28;20407;-79
2022/08/03 09:39:46;;;;;;;20.95;3.08;;;;;;;;;;5034360;28;20017;-79
2022/08/03 09:42:16;;;;;;;19.83;2.92;;;;;;;;;;5035129;28;20456;-79
2022/08/03 09:44:48;;;;;;;21.23;3.15;;;;;;;;;;5034390;28;20108;-79
2022/08/03 09:47:16;;;;;;;18.48;2.80;;;;;;;;;;5034738;28;20021;-78
2022/08/03 09:49:42;;;;;;;17.58;3.17;;;;;;;;;;5033359;28;20036;-79
2022/08/03 09:52:13;;;;;;;23.00;2.97;;;;;;;;;;5033068;28;20480;-79
2022/08/03 09:54:42;;;;;;;17.52;2.75;;;;;;;;;;5033787;28;20559;-79
2022/08/03 09:57:08;;;;;;;20.35;2.78;;;;;;;;;;5016851;28;20034;-79
2022/08/03 09:59:34;;;;;;;12.63;2.75;;;;;;;;;;5014035;28;20022;-79
2022/08/03 10:02:00;;;;;;;21.83;3.05;;;;;;;;;;5014740;28;20033;-79
2022/08/03 10:04:26;;;;;;;13.45;3.25;;;;;;;;;;5014589;28;20022;-79
2022/08/03 10:07:03;;;;;;;13.55;2.88;;;;;;;;;;5014600;28;20021;-79
2022/08/03 10:09:29;;;;;;;21.92;2.72;;;;;;;;;;5014211;28;20092;-79
2022/08/03 10:11:55;;;;;;;18.63;2.72;;;;;;;;;;5013139;28;20030;-79
2022/08/03 10:14:22;;;;;;;25.42;2.60;;;;;;;;;;5014293;28;20080;-79
2022/08/03 10:16:49;;;;;;;17.90;2.75;;;;;;;;;;5013222;28;20026;-79
2022/08/03 10:19:15;;;;;;;12.32;2.20;;;;;;;;;;5014352;28;20049;-79
2022/08/03 10:22:04;;;;;;;18.58;2.90;;;;;;;;;;5014569;28;20058;-79
2022/08/03 10:24:30;;;;;;;15.52;2.50;;;;;;;;;;5010553;28;20038;-79
2022/08/03 10:27:02;;;;;;;18.58;2.50;;;;;;;;;;5014547;28;20428;-79
2022/08/03 10:29:29;;;;;;;11.38;2.50;;;;;;;;;;5013007;28;20470;-79
2022/08/03 10:31:57;;;;;;;15.88;2.40;;;;;;;;;;5014435;28;20026;-79
2022/08/03 10:34:25;;;;;;;16.20;2.40;;;;;;;;;;5014744;28;20034;-80
2022/08/03 10:36:52;;;;;;;17.05;2.53;;;;;;;;;;5014187;28;20038;-80
2022/08/03 10:39:21;;;;;;;19.40;2.65;;;;;;;;;;5033312;28;20021;-79
2022/08/03 10:41:48;;;;;;;13.38;2.58;;;;;;;;;;5034399;28;20415;-79
2022/08/03 10:44:22;;;;;;;14.88;2.47;;;;;;;;;;5034156;28;20105;-79
2022/08/03 10:46:49;;;;;;;11.38;2.20;;;;;;;;;;5049281;28;20032;-79
2022/08/03 10:49:16;;;;;;;16.27;2.63;;;;;;;;;;5032418;28;20100;-79
2022/08/03 10:51:44;;;;;;;14.98;1.75;;;;;;;;;;5033568;28;20064;-80
2022/08/03 10:57:33;;;;;;;10.77;2.42;;;;;;;;;;5034001;28;20351;-80
2022/08/03 10:57:42;;;;;;;14.85;1.73;;;;;;;;;;5033742;28;20037;-79
2022/08/03 11:00:09;;;;;;;14.68;2.28;;;;;;;;;;5034042;28;20034;-80
2022/08/03 11:02:54;;;;;;;12.20;2.20;;;;;;;;;;5033145;28;20021;-79
2022/08/03 11:05:29;;;;;;;13.02;2.25;;;;;;;;;;5030621;28;20044;-79
2022/08/03 11:08:14;;;;;;;16.50;2.33;;;;;;;;;;5031296;28;20033;-76
2022/08/03 11:10:40;;;;;;;10.75;1.98;;;;;;;;;;5032878;28;20025;-76
2022/08/03 11:13:07;;;;;;;14.25;2.38;;;;;;;;;;5030901;28;20033;-76
2022/08/03 11:15:34;;;;;;;19.00;2.65;;;;;;;;;;5032087;28;20022;-76
2022/08/03 11:18:10;;;;;;;19.23;2.33;;;;;;;;;;5031997;28;20029;-75
2022/08/03 11:20:45;;;;;;;16.35;2.33;;;;;;;;;;5031962;28;20022;-76
2022/08/03 11:23:11;;;;;;;14.13;2.58;;;;;;;;;;5046403;28;20098;-76
2022/08/03 11:26:01;;;;;;;17.15;2.38;;;;;;;;;;5031953;28;20052;-75
2022/08/03 11:28:27;;;;;;;13.38;2.42;;;;;;;;;;5024088;28;20356;-75
2022/08/03 11:30:53;;;;;;;14.60;2.33;;;;;;;;;;5031933;28;20486;-76
2022/08/03 11:33:29;;;;;;;18.73;2.42;;;;;;;;;;5032092;28;20363;-76
2022/08/03 11:36:00;;;;;;;19.98;2.20;;;;;;;;;;5030865;28;20467;-77
2022/08/03 11:38:26;;;;;;;9.50;2.28;;;;;;;;;;5031873;28;20045;-75
2022/08/03 11:40:52;;;;;;;21.63;3.38;;;;;;;;;;5031767;28;20025;-75
2022/08/03 11:43:22;;;;;;;13.30;2.10;;;;;;;;;;5031650;28;20060;-75
2022/08/03 11:45:56;;;;;;;17.25;2.63;;;;;;;;;;5031542;28;20017;-76
2022/08/03 11:48:22;;;;;;;13.18;2.70;;;;;;;;;;5029575;28;20079;-75
2022/08/03 11:50:49;;;;;;;14.27;1.77;;;;;;;;;;5031697;28;20045;-75
2022/08/03 11:53:17;;;;;;;14.68;2.00;;;;;;;;;;5030310;28;20495;-75
2022/08/03 11:55:47;;;;;;;12.18;2.42;;;;;;;;;;5031580;28;20076;-75
2022/08/03 11:58:17;;;;;;;12.43;2.70;;;;;;;;;;5031100;28;20033;-75
2022/08/03 12:00:43;;;;;;;10.60;2.13;;;;;;;;;;5029905;28;20383;-75
2022/08/03 12:03:10;;;;;;;15.30;2.97;;;;;;;;;;5031162;28;20026;-75
2022/08/03 12:05:43;;;;;;;13.60;1.80;;;;;;;;;;5029750;28;20100;-76
2022/08/03 12:08:11;;;;;;;11.10;2.15;;;;;;;;;;5018503;28;20030;-75
2022/08/03 12:10:38;;;;;;;13.20;2.22;;;;;;;;;;5029548;28;20021;-75
2022/08/03 12:13:05;;;;;;;21.40;2.63;;;;;;;;;;5029741;28;20036;-75
2022/08/03 12:15:35;;;;;;;15.02;1.85;;;;;;;;;;5031590;28;20375;-75
2022/08/03 12:18:12;;;;;;;20.83;2.80;;;;;;;;;;5031470;28;20025;-76
2022/08/03 12:20:42;;;;;;;15.68;1.98;;;;;;;;;;5028796;28;20091;-75
2022/08/03 12:23:08;;;;;;;11.60;2.00;;;;;;;;;;5028612;28;20082;-76
2022/08/03 12:25:36;;;;;;;15.18;2.47;;;;;;;;;;5035126;28;20030;-76
2022/08/03 12:28:15;;;;;;;13.15;2.38;;;;;;;;;;5034585;28;20032;-76
2022/08/03 12:30:42;;;;;;;11.15;1.85;;;;;;;;;;5049005;28;20029;-76
2022/08/03 12:33:21;;;;;;;18.17;2.13;;;;;;;;;;5034852;28;20112;-74
2022/08/03 12:35:48;;;;;;;14.02;2.00;;;;;;;;;;5035050;28;20030;-74
2022/08/03 12:38:19;;;;;;;12.27;2.42;;;;;;;;;;5033460;28;20472;-75
2022/08/03 12:40:46;;;;;;;13.57;2.00;;;;;;;;;;5034950;28;20040;-74
2022/08/03 12:43:13;;;;;;;17.98;3.08;;;;;;;;;;5028365;28;20017;-74
2022/08/03 12:45:39;;;;;;;18.50;1.85;;;;;;;;;;5033510;28;20033;-74
2022/08/03 12:48:09;;;;;;;12.18;1.40;;;;;;;;;;5034421;28;20033;-74
2022/08/03 12:50:36;;;;;;;9.07;1.50;;;;;;;;;;5032553;28;20021;-74
2022/08/03 12:53:04;;;;;;;8.45;1.23;;;;;;;;;;5035043;28;20029;-74
2022/08/03 12:55:33;;;;;;;6.35;1.02;;;;;;;;;;5035286;28;20021;-75
2022/08/03 12:58:03;;;;;;;7.72;1.10;;;;;;;;;;5034768;28;20354;-75
2022/08/03 13:00:29;;;;;;;5.57;1.00;;;;;;;;;;5032438;28;20459;-75
2022/08/03 13:03:13;;;;;;;5.57;1.38;;;;;;;;;;5034594;28;20063;-75
2022/08/03 13:05:43;;;;;;;5.90;1.38;;;;;;;;;;5033807;28;20029;-75
2022/08/03 13:08:22;;;;;;;11.05;1.50;;;;;;;;;;5047745;28;20105;-75
2022/08/03 13:10:49;;;;;;;10.07;1.60;;;;;;;;;;5034905;28;20018;-75
2022/08/03 13:13:15;;;;;;;6.72;1.45;;;;;;;;;;5034775;28;20017;-75
2022/08/03 13:15:41;;;;;;;10.52;2.05;;;;;;;;;;5033395;28;20036;-75
2022/08/03 13:18:07;;;;;;;9.23;1.50;;;;;;;;;;5034674;28;20079;-77
2022/08/03 13:20:34;;;;;;;14.05;2.20;;;;;;;;;;5034768;28;20030;-76
2022/08/03 13:23:00;;;;;;;10.55;2.00;;;;;;;;;;5034533;28;20017;-76
2022/08/03 13:25:26;;;;;;;5.80;1.58;;;;;;;;;;5033731;28;20034;-76
2022/08/03 13:27:52;;;;;;;7.00;1.42;;;;;;;;;;5033298;28;20045;-75
2022/08/03 13:30:18;;;;;;;7.20;1.30;;;;;;;;;;5033633;28;20032;-76
2022/08/03 13:32:44;;;;;;;7.40;1.73;;;;;;;;;;5032036;28;20028;-76
2022/08/03 13:35:11;;;;;;;15.48;1.88;;;;;;;;;;5033565;28;20037;-76
2022/08/03 13:37:37;;;;;;;6.00;1.70;;;;;;;;;;5034613;28;20069;-74
2022/08/03 13:40:04;;;;;;;15.27;2.53;;;;;;;;;;5034533;28;20075;-76
2022/08/03 13:42:31;;;;;;;7.47;1.60;;;;;;;;;;5034443;28;20029;-75
2022/08/03 13:44:58;;;;;;;9.85;1.88;;;;;;;;;;5033803;28;20029;-75
2022/08/03 13:47:24;;;;;;;8.18;1.80;;;;;;;;;;5033450;28;20120;-76
2022/08/03 13:49:52;;;;;;;3.20;1.20;;;;;;;;;;5033584;28;20018;-76
2022/08/03 13:52:18;;;;;;;7.63;1.38;;;;;;;;;;5033681;28;20037;-77
2022/08/03 13:54:44;;;;;;;5.22;1.30;;;;;;;;;;5032159;28;20403;-76
2022/08/03 13:57:10;;;;;;;3.50;1.20;;;;;;;;;;5033315;28;20080;-76
2022/08/03 13:59:36;;;;;;;5.72;1.17;;;;;;;;;;5033318;28;20080;-76
2022/08/03 14:02:03;;;;;;;3.88;1.67;;;;;;;;;;5033617;28;20025;-76
2022/08/03 14:04:29;;;;;;;7.78;1.88;;;;;;;;;;5033348;28;20021;-76
2022/08/03 14:06:55;;;;;;;4.07;1.33;;;;;;;;;;5033459;28;20026;-76
2022/08/03 14:09:21;;;;;;;5.82;1.60;;;;;;;;;;5033629;28;20028;-74
2022/08/03 14:11:47;;;;;;;5.60;1.70;;;;;;;;;;5032675;28;20554;-76
2022/08/03 14:14:13;;;;;;;7.03;1.80;;;;;;;;;;5033784;28;20026;-75
2022/08/03 14:16:39;;;;;;;8.52;1.55;;;;;;;;;;5034269;28;20033;-77
2022/08/03 14:19:05;;;;;;;5.90;1.50;;;;;;;;;;5031416;28;20333;-78
2022/08/03 14:21:32;;;;;;;7.10;1.38;;;;;;;;;;5034392;28;20032;-78
2022/08/03 14:23:58;;;;;;;3.42;1.40;;;;;;;;;;5032492;28;20021;-78
2022/08/03 14:26:25;;;;;;;8.45;1.40;;;;;;;;;;5033755;28;20426;-78
2022/08/03 14:28:51;;;;;;;5.30;1.40;;;;;;;;;;5033038;28;20368;-78
2022/08/03 14:31:17;;;;;;;7.93;1.60;;;;;;;;;;5033050;28;20018;-78
2022/08/03 14:33:43;;;;;;;4.88;1.42;;;;;;;;;;5032576;28;20025;-77
2022/08/03 14:36:09;;;;;;;5.68;1.35;;;;;;;;;;5034487;28;20143;-78
2022/08/03 14:38:35;;;;;;;8.02;1.70;;;;;;;;;;5020773;28;20377;-78
2022/08/03 14:41:01;;;;;;;8.20;1.80;;;;;;;;;;5014095;28;20048;-78
2022/08/03 14:43:27;;;;;;;4.65;1.65;;;;;;;;;;5013925;28;20026;-78